メインページ
METAR-TAF:

METAR-TAF

空港 :

ナタール, リオグランデ・ド・ノルテ州, ブラジル

緯度: 05-46-05S, 経度: 035-22-34W, 海抜: 88m

現時点の気象観測

当レポートは1時間17分前の05:00(UTC)に作成
南西の風 2kt
気温 25°C
湿度 94%
気圧 1012 hPa
視程10km以上
高度1900ftの雲は散在している

METAR: SBSG 280500Z 23002KT 9999 SCT019 25/24 Q1012

時間: 03:17 (06:17 UTC)

予報

当レポートは2時間17分前の04:00(UTC)に作成
予報は28日の 06時(UTC)から 29日の 06時(UTC)まで有効
南西の風 5kt
視程: 8000m
高度1800ftの雲は散在している
28日の 12時(UTC)から 28日の 14時(UTC)まで徐々に
南/南東の風 12kt
高度1800ftの千切れ雲あり
28日の 15時(UTC)から 28日の 17時(UTC)まで徐々に
高度2500ftの雲は散在している
28日の 22時(UTC)から 28日の 23時(UTC)まで徐々に
視程: 1500m
29日の 02時(UTC)から 29日の 04時(UTC)まで徐々に
南西の風 5kt

TAF: SBSG 280400Z 2806/2906 22005KT 8000 SCT018 TN24/2808Z TX31/2816Z BECMG 2812/2814 15012KT BKN018 BECMG 2815/2817 SCT025 BECMG 2822/2823 1500 8KT BECMG 2902/2904 22005KT RMK PEU

4,000以上の空港の気象観測と天気予報(METAR報とTAF報)

利用可能な観測所は地図上に黄色い丸と赤い丸で示す。

丸の上にカーソルを重ねると観測所名を参照できる。

次にクリックすると気象観測と天気予報を参照できる。

マップの切り替え:黒色「×」印の緑ボタンをクリックして拡大、「-」印の緑ボタンをクリックして縮小、緑色の三角印をクリックして隣りの地図に切り替え


METAR-TAF: